Time;durP1;ratioP1;P1;durP2;ratioP2;P2;SDS_P1;SDS_P2;PMS_P1;PMS_P2;Temp;Humidity;BMP_temperature;BMP_pressure;BME280_temperature;BME280_humidity;BME280_pressure;Samples;Min_cycle;Max_cycle;Signal;HPM_P1;HPM_P2
2021/06/19 00:00:42;;;;;;;3.13;2.93;;;21.40;99.90;;;;;;5143034;27;20243;-67
2021/06/19 00:03:10;;;;;;;3.60;3.30;;;21.40;99.90;;;;;;5143508;27;20186;-66
2021/06/19 00:05:41;;;;;;;2.93;2.83;;;21.30;99.90;;;;;;5138651;27;20317;-65
2021/06/19 00:08:12;;;;;;;3.30;3.10;;;21.30;99.90;;;;;;5143510;27;20213;-65
2021/06/19 00:10:41;;;;;;;3.57;3.23;;;21.30;99.90;;;;;;5138608;27;20178;-65
2021/06/19 00:13:11;;;;;;;3.70;3.40;;;21.30;99.90;;;;;;5128989;27;20219;-64
2021/06/19 00:15:40;;;;;;;3.40;3.20;;;21.20;99.90;;;;;;5135588;27;20241;-65
2021/06/19 00:18:08;;;;;;;3.27;3.07;;;21.20;99.90;;;;;;5138842;27;20235;-65
2021/06/19 00:20:37;;;;;;;3.13;3.03;;;21.20;99.90;;;;;;5133754;27;20205;-65
2021/06/19 00:23:06;;;;;;;4.07;3.20;;;21.20;99.90;;;;;;5144324;27;20178;-64
2021/06/19 00:25:35;;;;;;;4.80;3.30;;;21.20;99.90;;;;;;5142753;27;20341;-65
2021/06/19 00:28:04;;;;;;;3.27;3.03;;;21.20;99.90;;;;;;5115291;28;20191;-65
2021/06/19 00:30:32;;;;;;;3.47;3.30;;;21.10;99.90;;;;;;5135531;27;20220;-65
2021/06/19 00:33:01;;;;;;;3.70;3.00;;;21.10;99.90;;;;;;5135352;27;20271;-64
2021/06/19 00:35:29;;;;;;;3.53;3.23;;;21.10;99.90;;;;;;5135869;27;20551;-66
2021/06/19 00:37:57;;;;;;;3.50;3.20;;;21.10;99.90;;;;;;5135555;27;20182;-65
2021/06/19 00:40:28;;;;;;;3.50;3.30;;;21.00;99.90;;;;;;5137483;27;20385;-65
2021/06/19 00:42:58;;;;;;;3.50;3.30;;;21.00;99.90;;;;;;5136764;27;20182;-65
2021/06/19 00:45:30;;;;;;;3.87;3.70;;;21.00;99.90;;;;;;5137396;27;20296;-65
2021/06/19 00:47:58;;;;;;;4.40;4.20;;;21.00;99.90;;;;;;5139652;27;20178;-65
2021/06/19 00:50:28;;;;;;;5.43;3.90;;;21.00;99.90;;;;;;5134446;27;20215;-65
2021/06/19 00:52:56;;;;;;;3.87;3.57;;;21.00;99.90;;;;;;5142711;27;20201;-65
2021/06/19 00:55:29;;;;;;;4.00;3.80;;;21.00;99.90;;;;;;5136174;27;20170;-65
2021/06/19 00:57:58;;;;;;;5.47;4.13;;;21.00;99.90;;;;;;5156519;27;20178;-65
2021/06/19 01:00:26;;;;;;;4.10;3.83;;;20.90;99.90;;;;;;5130721;27;20382;-65
2021/06/19 01:02:55;;;;;;;4.00;3.80;;;20.90;99.90;;;;;;5141259;27;20362;-65
2021/06/19 01:05:25;;;;;;;4.40;4.10;;;20.90;99.90;;;;;;5140259;27;20193;-65
2021/06/19 01:07:58;;;;;;;5.80;5.30;;;20.80;99.90;;;;;;5139841;27;20265;-65
2021/06/19 01:10:28;;;;;;;7.03;5.93;;;20.80;99.90;;;;;;5132616;27;20222;-65
2021/06/19 01:12:57;;;;;;;6.17;5.53;;;20.90;99.90;;;;;;5138817;27;20186;-65
2021/06/19 01:15:32;;;;;;;6.60;6.00;;;20.90;99.90;;;;;;5139176;27;20178;-65
2021/06/19 01:18:01;;;;;;;6.93;5.93;;;20.80;99.90;;;;;;5142537;27;20405;-65
2021/06/19 01:20:35;;;;;;;6.50;6.00;;;20.80;99.90;;;;;;5142401;27;20198;-65
2021/06/19 01:23:04;;;;;;;6.77;5.00;;;20.80;99.90;;;;;;5156223;27;20174;-65
2021/06/19 01:25:34;;;;;;;5.23;4.83;;;20.80;99.90;;;;;;5142114;28;20218;-65
2021/06/19 01:28:05;;;;;;;6.00;5.40;;;20.70;99.90;;;;;;5142318;27;20226;-65
2021/06/19 01:30:34;;;;;;;5.67;5.03;;;20.70;99.90;;;;;;5153682;27;20205;-65
2021/06/19 01:33:02;;;;;;;5.60;5.10;;;20.70;99.90;;;;;;5144509;27;20182;-65
2021/06/19 01:35:30;;;;;;;6.33;5.93;;;20.60;99.90;;;;;;5142355;27;20277;-65
2021/06/19 01:37:59;;;;;;;6.47;5.97;;;20.50;99.90;;;;;;5141082;27;20180;-65
2021/06/19 01:40:29;;;;;;;6.87;6.20;;;20.40;99.90;;;;;;5147742;27;20178;-66
2021/06/19 01:43:01;;;;;;;9.40;6.00;;;20.40;99.90;;;;;;5142554;27;20231;-64
2021/06/19 01:45:31;;;;;;;7.83;6.57;;;20.40;99.90;;;;;;5144339;27;20182;-64
2021/06/19 01:48:07;;;;;;;6.87;6.20;;;20.30;99.90;;;;;;5144075;27;20258;-65
2021/06/19 01:50:37;;;;;;;5.77;5.20;;;20.30;99.90;;;;;;5148818;27;20213;-64
2021/06/19 01:53:06;;;;;;;6.33;5.60;;;20.30;99.90;;;;;;5151098;27;20177;-64
2021/06/19 01:55:34;;;;;;;6.10;5.60;;;20.20;99.90;;;;;;5152221;27;20298;-67
2021/06/19 01:58:04;;;;;;;9.37;6.53;;;20.20;99.90;;;;;;5147635;27;20223;-64
2021/06/19 02:00:35;;;;;;;7.80;6.63;;;20.20;99.90;;;;;;5144727;27;20186;-64
2021/06/19 02:03:09;;;;;;;7.20;6.50;;;20.10;99.90;;;;;;5147390;27;20190;-65
2021/06/19 02:05:38;;;;;;;14.43;7.80;;;20.10;99.90;;;;;;5148756;27;20185;-66
2021/06/19 02:08:10;;;;;;;11.07;8.20;;;20.00;99.90;;;;;;5156250;27;20397;-65
2021/06/19 02:10:40;;;;;;;10.70;7.50;;;20.00;99.90;;;;;;5150443;27;20205;-64
2021/06/19 02:13:13;;;;;;;11.40;8.50;;;19.90;99.90;;;;;;5151142;27;20626;-66
2021/06/19 02:15:47;;;;;;;8.37;7.13;;;19.90;99.90;;;;;;5151912;27;20234;-64
2021/06/19 02:18:16;;;;;;;9.70;8.20;;;19.80;99.90;;;;;;5137667;27;20230;-65
2021/06/19 02:20:47;;;;;;;8.00;7.17;;;19.70;99.90;;;;;;5147941;27;20181;-65
2021/06/19 02:23:15;;;;;;;9.93;7.70;;;19.60;99.90;;;;;;5145337;27;20274;-66
2021/06/19 02:25:46;;;;;;;7.23;6.53;;;19.50;99.90;;;;;;5143019;27;20226;-64
2021/06/19 02:28:15;;;;;;;7.47;6.77;;;19.40;99.90;;;;;;5148538;27;20198;-65
2021/06/19 02:30:46;;;;;;;6.53;5.83;;;19.30;99.90;;;;;;5132190;27;20227;-64
2021/06/19 02:33:15;;;;;;;6.50;5.90;;;19.20;99.90;;;;;;5144334;27;20303;-64
2021/06/19 02:35:46;;;;;;;6.73;6.13;;;19.10;99.90;;;;;;5156825;27;20263;-65
2021/06/19 02:38:15;;;;;;;6.17;5.57;;;19.00;99.90;;;;;;5146168;27;20386;-64
2021/06/19 02:40:43;;;;;;;6.40;5.80;;;19.00;99.90;;;;;;5151280;27;20190;-64
2021/06/19 02:43:13;;;;;;;7.50;6.43;;;18.90;99.90;;;;;;5145158;27;20183;-65
2021/06/19 02:45:43;;;;;;;6.37;5.77;;;18.90;99.90;;;;;;5146263;27;20179;-65
2021/06/19 02:48:11;;;;;;;5.53;4.90;;;18.90;99.90;;;;;;5146193;27;20182;-66
2021/06/19 02:50:41;;;;;;;5.03;3.87;;;18.90;99.90;;;;;;5152658;27;20202;-66
2021/06/19 02:53:12;;;;;;;5.20;4.80;;;18.80;99.90;;;;;;5144975;27;20227;-65
2021/06/19 02:55:47;;;;;;;5.20;4.80;;;18.80;99.90;;;;;;5139926;27;20370;-65
2021/06/19 02:58:16;;;;;;;4.43;4.13;;;18.70;99.90;;;;;;5147051;27;20197;-64
2021/06/19 03:00:47;;;;;;;7.20;6.00;;;18.60;99.90;;;;;;5146103;27;20185;-65
2021/06/19 03:03:15;;;;;;;5.70;5.20;;;18.60;99.90;;;;;;5146024;27;20247;-64
2021/06/19 03:05:43;;;;;;;6.73;6.13;;;18.50;99.90;;;;;;5150236;27;20179;-65
2021/06/19 03:08:12;;;;;;;8.60;6.47;;;18.50;99.90;;;;;;5145414;27;20188;-64
2021/06/19 03:10:41;;;;;;;7.57;6.77;;;18.50;99.90;;;;;;5145439;27;20218;-64
2021/06/19 03:13:10;;;;;;;7.47;6.83;;;18.50;99.90;;;;;;5142637;27;20174;-64
2021/06/19 03:15:38;;;;;;;7.23;6.50;;;18.40;99.90;;;;;;5147003;27;20181;-64
2021/06/19 03:18:08;;;;;;;6.27;5.77;;;18.40;99.90;;;;;;5141353;27;20401;-65
2021/06/19 03:20:37;;;;;;;7.93;6.43;;;18.40;99.90;;;;;;5145443;27;20186;-65
2021/06/19 03:23:07;;;;;;;7.23;5.93;;;18.30;99.90;;;;;;5145420;27;20403;-65
2021/06/19 03:25:40;;;;;;;10.33;7.60;;;18.30;99.90;;;;;;5145341;27;20212;-65
2021/06/19 03:28:09;;;;;;;9.50;7.30;;;18.20;99.90;;;;;;5145535;27;20446;-65
2021/06/19 03:30:39;;;;;;;8.63;7.67;;;18.10;99.90;;;;;;5144411;27;20202;-64
2021/06/19 03:33:11;;;;;;;8.90;6.90;;;18.10;99.90;;;;;;5144610;27;20251;-64
2021/06/19 03:35:40;;;;;;;7.73;6.20;;;18.00;99.90;;;;;;5133683;27;20190;-65
2021/06/19 03:38:09;;;;;;;6.83;6.13;;;18.00;99.90;;;;;;5154560;27;20186;-65
2021/06/19 03:40:38;;;;;;;5.90;5.40;;;17.90;99.90;;;;;;5145855;27;20193;-65
2021/06/19 03:43:07;;;;;;;5.67;5.17;;;17.90;99.90;;;;;;5149791;27;20190;-65
2021/06/19 03:45:35;;;;;;;5.77;5.17;;;17.90;99.90;;;;;;5145467;27;20221;-66
2021/06/19 03:48:05;;;;;;;5.07;4.67;;;17.80;99.90;;;;;;5149552;27;20249;-65
2021/06/19 03:50:35;;;;;;;4.53;4.23;;;17.80;99.90;;;;;;5143142;27;20209;-65
2021/06/19 03:53:05;;;;;;;5.03;4.53;;;17.80;99.90;;;;;;5142753;27;20212;-65
2021/06/19 03:55:33;;;;;;;5.20;4.67;;;17.80;99.90;;;;;;5144318;27;20188;-64
2021/06/19 03:58:02;;;;;;;5.33;4.90;;;17.80;99.90;;;;;;5148054;27;20286;-65
2021/06/19 04:00:31;;;;;;;5.30;4.80;;;17.70;99.90;;;;;;5143581;27;20436;-64
2021/06/19 04:03:03;;;;;;;5.70;4.53;;;17.70;99.90;;;;;;5142534;27;20339;-65
2021/06/19 04:05:31;;;;;;;4.87;4.47;;;17.60;99.90;;;;;;5144931;27;20358;-65
2021/06/19 04:08:02;;;;;;;5.93;4.93;;;17.60;99.90;;;;;;5150643;27;20181;-66
2021/06/19 04:10:30;;;;;;;7.07;4.63;;;17.60;99.90;;;;;;5133995;27;20214;-65
2021/06/19 04:12:58;;;;;;;5.23;4.83;;;17.60;99.90;;;;;;5145145;27;20190;-65
2021/06/19 04:15:27;;;;;;;4.80;4.40;;;17.60;99.90;;;;;;5143233;27;20430;-65
2021/06/19 04:17:58;;;;;;;4.03;3.63;;;17.50;99.90;;;;;;5144217;27;20223;-64
2021/06/19 04:20:26;;;;;;;4.63;4.23;;;17.60;99.90;;;;;;5145741;27;20195;-65
2021/06/19 04:22:57;;;;;;;4.70;4.30;;;17.50;99.90;;;;;;5144422;27;20174;-64
2021/06/19 04:25:27;;;;;;;3.90;3.60;;;17.50;99.90;;;;;;5143725;27;20213;-66
2021/06/19 04:27:58;;;;;;;4.80;4.30;;;17.50;99.90;;;;;;5142946;27;20185;-65
2021/06/19 04:30:32;;;;;;;4.33;4.00;;;17.50;99.90;;;;;;5148192;27;20219;-65
2021/06/19 04:33:01;;;;;;;5.03;4.57;;;17.50;99.90;;;;;;5142434;27;20201;-65
2021/06/19 04:35:30;;;;;;;4.60;4.30;;;17.40;99.90;;;;;;5149677;27;20452;-64
2021/06/19 04:37:59;;;;;;;4.97;4.67;;;17.40;99.90;;;;;;5142908;27;20206;-64
2021/06/19 04:40:35;;;;;;;4.67;4.37;;;17.40;99.90;;;;;;5140364;27;20194;-65
2021/06/19 04:43:05;;;;;;;5.40;4.57;;;17.40;99.90;;;;;;5151337;27;20221;-64
2021/06/19 04:45:36;;;;;;;5.03;4.73;;;17.40;99.90;;;;;;5144387;27;20269;-66
2021/06/19 04:48:05;;;;;;;5.70;5.20;;;17.40;99.90;;;;;;5140002;27;20185;-65
2021/06/19 04:50:36;;;;;;;5.20;4.90;;;17.40;99.90;;;;;;5141723;27;20226;-64
2021/06/19 04:53:06;;;;;;;5.30;4.90;;;17.40;99.90;;;;;;5148612;27;20181;-65
2021/06/19 04:55:36;;;;;;;4.70;4.30;;;17.40;99.90;;;;;;5144359;27;20401;-64
2021/06/19 04:58:07;;;;;;;4.87;4.47;;;17.40;99.90;;;;;;5144408;27;20185;-64
2021/06/19 05:00:38;;;;;;;4.37;4.07;;;17.40;99.90;;;;;;5141081;27;20179;-65
2021/06/19 05:03:07;;;;;;;3.77;3.53;;;17.40;99.90;;;;;;5145385;27;20184;-64
2021/06/19 05:05:35;;;;;;;4.30;3.90;;;17.40;99.90;;;;;;5142271;27;20416;-65
2021/06/19 05:08:04;;;;;;;5.30;4.07;;;17.40;99.90;;;;;;5156752;27;20177;-64
2021/06/19 05:10:32;;;;;;;4.33;3.93;;;17.40;99.90;;;;;;5151860;27;20207;-65
2021/06/19 05:13:01;;;;;;;4.37;4.07;;;17.40;99.90;;;;;;5139393;27;20412;-65
2021/06/19 05:15:31;;;;;;;4.63;4.23;;;17.50;99.90;;;;;;5143974;27;20191;-65
2021/06/19 05:17:59;;;;;;;4.60;4.20;;;17.40;99.90;;;;;;5142515;27;20309;-65
2021/06/19 05:20:30;;;;;;;4.60;4.30;;;17.40;99.90;;;;;;5142734;27;20179;-65
2021/06/19 05:23:00;;;;;;;4.80;4.40;;;17.40;99.90;;;;;;5144127;27;20176;-64
2021/06/19 05:25:29;;;;;;;4.50;4.20;;;17.40;99.90;;;;;;5146580;27;20438;-65
2021/06/19 05:27:57;;;;;;;5.67;5.27;;;17.40;99.90;;;;;;5147983;27;20189;-65
2021/06/19 05:30:28;;;;;;;5.60;5.20;;;17.50;99.90;;;;;;5144096;27;20222;-65
2021/06/19 05:32:56;;;;;;;5.90;4.93;;;17.50;99.90;;;;;;5142447;27;20358;-65
2021/06/19 05:35:25;;;;;;;6.57;5.97;;;17.40;99.90;;;;;;5144616;27;20218;-65
2021/06/19 05:37:53;;;;;;;6.67;6.00;;;17.50;99.90;;;;;;5135369;27;20179;-65
2021/06/19 05:40:22;;;;;;;6.30;5.50;;;17.60;99.90;;;;;;5148379;27;20310;-66
2021/06/19 05:42:50;;;;;;;6.97;6.27;;;17.50;99.90;;;;;;5144004;27;20192;-64
2021/06/19 05:45:19;;;;;;;6.47;5.87;;;17.60;99.90;;;;;;5148207;27;20656;-65
2021/06/19 05:47:51;;;;;;;7.13;6.27;;;17.60;99.90;;;;;;5142699;27;20194;-63
2021/06/19 05:50:20;;;;;;;9.77;6.90;;;17.60;99.90;;;;;;5152988;27;20429;-64
2021/06/19 05:52:48;;;;;;;7.13;6.50;;;17.60;99.90;;;;;;5146336;27;20221;-65
2021/06/19 05:55:17;;;;;;;6.97;6.23;;;17.60;99.90;;;;;;5146565;27;20173;-65
2021/06/19 05:57:46;;;;;;;7.23;6.20;;;17.60;99.90;;;;;;5139737;27;20203;-65
2021/06/19 06:00:16;;;;;;;7.43;6.60;;;17.70;99.90;;;;;;5141057;27;20184;-65
2021/06/19 06:02:45;;;;;;;7.03;6.40;;;17.60;99.90;;;;;;5140847;27;20229;-65
2021/06/19 06:05:15;;;;;;;9.63;7.30;;;17.70;99.90;;;;;;5140395;27;20170;-66
2021/06/19 06:07:44;;;;;;;8.90;6.87;;;17.70;99.90;;;;;;5142944;27;20193;-65
2021/06/19 06:10:12;;;;;;;9.20;7.23;;;17.70;99.90;;;;;;5143279;27;20170;-67
2021/06/19 06:12:42;;;;;;;11.17;7.80;;;17.70;99.90;;;;;;5141663;27;20377;-65
2021/06/19 06:15:11;;;;;;;12.50;8.57;;;17.70;99.90;;;;;;5142803;28;20190;-64
2021/06/19 06:17:39;;;;;;;8.93;7.67;;;17.70;99.90;;;;;;5140124;27;20213;-65
2021/06/19 06:20:09;;;;;;;10.13;7.87;;;17.70;99.90;;;;;;5137738;28;20182;-65
2021/06/19 06:22:39;;;;;;;12.07;8.70;;;17.70;99.90;;;;;;5143006;27;20183;-65
2021/06/19 06:25:08;;;;;;;10.20;8.00;;;17.70;99.90;;;;;;5141109;27;20374;-64
2021/06/19 06:27:36;;;;;;;9.60;8.60;;;17.70;99.90;;;;;;5138692;27;20190;-64
2021/06/19 06:30:07;;;;;;;16.23;8.47;;;17.80;99.90;;;;;;5148727;27;20187;-65
2021/06/19 06:32:36;;;;;;;11.87;8.93;;;17.90;99.90;;;;;;5154500;27;20218;-65
2021/06/19 06:35:07;;;;;;;15.97;10.70;;;17.90;99.90;;;;;;5159356;27;20267;-64
2021/06/19 06:37:36;;;;;;;17.20;11.17;;;17.90;99.90;;;;;;5155489;27;20231;-65
2021/06/19 06:40:08;;;;;;;14.63;11.13;;;17.90;99.90;;;;;;5159612;27;20173;-65
2021/06/19 06:42:40;;;;;;;12.37;9.97;;;18.00;99.90;;;;;;5143974;27;20182;-65
2021/06/19 06:45:10;;;;;;;17.43;10.60;;;18.00;99.90;;;;;;5133319;27;20207;-64
2021/06/19 06:47:57;;;;;;;14.23;10.10;;;18.00;99.90;;;;;;5137840;27;20185;-65
2021/06/19 06:50:26;;;;;;;15.43;10.23;;;18.10;99.90;;;;;;5135367;27;20180;-65
2021/06/19 06:52:55;;;;;;;15.23;10.30;;;18.20;99.90;;;;;;5138720;27;20315;-65
2021/06/19 06:55:26;;;;;;;14.70;10.93;;;18.20;99.90;;;;;;5141085;27;20259;-64
2021/06/19 06:57:54;;;;;;;12.40;10.20;;;18.10;99.90;;;;;;5143982;27;20178;-65
2021/06/19 07:00:23;;;;;;;17.03;11.03;;;18.20;99.90;;;;;;5141868;27;20397;-64
2021/06/19 07:02:51;;;;;;;15.73;10.40;;;18.10;99.90;;;;;;5145229;27;20199;-68
2021/06/19 07:05:20;;;;;;;15.60;11.00;;;18.20;99.90;;;;;;5135244;27;20396;-64
2021/06/19 07:07:50;;;;;;;16.33;11.47;;;18.10;99.90;;;;;;5143434;27;20454;-64
2021/06/19 07:10:18;;;;;;;16.00;10.80;;;18.10;99.90;;;;;;5144679;27;20178;-67
2021/06/19 07:12:48;;;;;;;13.93;10.47;;;18.20;99.90;;;;;;5137102;27;20209;-64
2021/06/19 07:15:18;;;;;;;14.23;10.37;;;18.20;99.90;;;;;;5147292;27;20266;-64
2021/06/19 07:17:48;;;;;;;13.37;9.53;;;18.20;99.90;;;;;;5145825;27;20178;-64
2021/06/19 07:20:18;;;;;;;12.40;10.07;;;18.20;99.90;;;;;;5141137;27;20174;-65
2021/06/19 07:22:47;;;;;;;16.63;10.77;;;18.20;99.90;;;;;;5130760;27;20204;-64
2021/06/19 07:25:16;;;;;;;16.83;10.80;;;18.20;99.90;;;;;;5139097;27;20233;-65
2021/06/19 07:27:53;;;;;;;16.10;10.77;;;18.30;99.90;;;;;;5143990;27;20300;-64
2021/06/19 07:30:23;;;;;;;12.43;9.63;;;18.30;99.90;;;;;;5148901;27;20325;-65
2021/06/19 07:32:55;;;;;;;15.63;10.53;;;18.10;99.90;;;;;;5144742;27;20337;-65
2021/06/19 07:35:26;;;;;;;13.60;9.80;;;18.10;99.90;;;;;;5145310;27;20194;-64
2021/06/19 07:37:54;;;;;;;12.33;9.30;;;18.10;99.90;;;;;;5145965;27;20222;-65
2021/06/19 07:40:22;;;;;;;13.70;9.97;;;18.10;99.90;;;;;;5145869;27;20200;-64
2021/06/19 07:42:52;;;;;;;13.17;9.00;;;18.10;99.90;;;;;;5143334;27;20270;-64
2021/06/19 07:45:21;;;;;;;12.87;9.87;;;18.00;99.90;;;;;;5136763;27;20399;-65
2021/06/19 07:47:50;;;;;;;12.77;9.57;;;18.00;99.90;;;;;;5140470;27;20724;-64
2021/06/19 07:50:18;;;;;;;15.70;11.17;;;18.00;99.90;;;;;;5144022;27;20185;-64
2021/06/19 07:52:47;;;;;;;14.90;10.13;;;18.00;99.90;;;;;;5140087;27;20427;-64
2021/06/19 07:55:16;;;;;;;14.97;11.10;;;18.00;99.90;;;;;;5155193;27;20185;-64
2021/06/19 07:57:44;;;;;;;17.73;12.20;;;18.00;99.90;;;;;;5131643;27;20182;-64
2021/06/19 08:00:15;;;;;;;16.97;11.40;;;18.10;99.90;;;;;;5139222;27;20171;-64
2021/06/19 08:02:44;;;;;;;16.77;11.60;;;18.10;99.90;;;;;;5131503;27;20186;-64
2021/06/19 08:05:13;;;;;;;16.20;11.23;;;18.20;99.90;;;;;;5141241;27;20395;-64
2021/06/19 08:07:42;;;;;;;18.40;11.47;;;18.30;99.90;;;;;;5139060;27;20528;-64
2021/06/19 08:10:11;;;;;;;15.87;10.17;;;18.30;99.90;;;;;;5130252;27;21430;-64
2021/06/19 08:12:40;;;;;;;11.83;8.97;;;18.30;99.90;;;;;;5133523;27;20277;-65
2021/06/19 08:15:10;;;;;;;11.20;8.70;;;18.40;99.90;;;;;;5139869;27;20297;-67
2021/06/19 08:17:40;;;;;;;9.63;7.57;;;18.40;99.90;;;;;;5137490;27;20363;-64
2021/06/19 08:20:10;;;;;;;8.60;6.20;;;18.40;99.90;;;;;;5141088;27;20242;-65
2021/06/19 08:22:39;;;;;;;6.43;5.90;;;18.40;99.90;;;;;;5145494;27;20250;-64
2021/06/19 08:25:08;;;;;;;6.33;5.40;;;18.40;99.90;;;;;;5140791;27;20714;-65
2021/06/19 08:27:37;;;;;;;5.10;4.70;;;18.50;99.90;;;;;;5145239;27;20251;-64
2021/06/19 08:30:07;;;;;;;5.33;4.73;;;18.70;99.90;;;;;;5153136;27;20361;-64
2021/06/19 08:32:36;;;;;;;4.73;4.33;;;18.80;99.90;;;;;;5140107;27;20345;-65
2021/06/19 08:35:07;;;;;;;5.37;4.97;;;18.80;99.90;;;;;;5144707;27;20377;-66
2021/06/19 08:37:36;;;;;;;5.97;4.63;;;19.00;99.90;;;;;;5143942;27;20263;-64
2021/06/19 08:40:05;;;;;;;5.47;4.97;;;19.00;99.90;;;;;;5145266;27;20178;-65
2021/06/19 08:42:33;;;;;;;5.33;4.73;;;19.00;99.90;;;;;;5138901;27;20227;-64
2021/06/19 08:45:04;;;;;;;5.10;4.70;;;19.10;99.90;;;;;;5146851;27;20192;-66
2021/06/19 08:47:35;;;;;;;6.37;4.70;;;19.20;99.90;;;;;;5136392;27;20428;-65
2021/06/19 08:50:09;;;;;;;5.13;4.63;;;19.20;99.90;;;;;;5139367;27;20178;-64
2021/06/19 08:52:39;;;;;;;5.40;4.90;;;19.20;99.90;;;;;;5128942;27;20209;-65
2021/06/19 08:55:10;;;;;;;5.17;4.70;;;19.20;99.90;;;;;;5146471;27;20281;-65
2021/06/19 08:57:39;;;;;;;5.90;4.53;;;19.10;99.90;;;;;;5139597;27;20194;-65
2021/06/19 09:00:10;;;;;;;4.53;4.23;;;19.10;99.90;;;;;;5151445;27;20177;-64
2021/06/19 09:02:39;;;;;;;4.60;4.20;;;19.00;99.90;;;;;;5139840;27;20791;-66
2021/06/19 09:05:13;;;;;;;5.13;4.77;;;19.00;99.90;;;;;;5144376;27;20302;-64
2021/06/19 09:07:45;;;;;;;6.67;4.40;;;18.90;99.90;;;;;;5142247;27;20194;-64
2021/06/19 09:10:21;;;;;;;4.40;4.10;;;18.90;99.90;;;;;;5140742;27;20223;-65
2021/06/19 09:13:11;;;;;;;3.70;3.40;;;19.00;99.90;;;;;;5136632;27;20251;-64
2021/06/19 09:15:51;;;;;;;4.57;4.17;;;19.10;99.90;;;;;;5140401;27;20237;-65
2021/06/19 09:18:21;;;;;;;4.00;3.80;;;19.10;99.90;;;;;;5136603;27;20178;-64
2021/06/19 09:20:53;;;;;;;4.17;3.87;;;19.00;99.90;;;;;;5133035;27;20206;-64
2021/06/19 09:23:33;;;;;;;4.17;3.87;;;18.90;99.90;;;;;;5144659;27;20453;-64
2021/06/19 09:26:16;;;;;;;4.10;3.90;;;18.90;99.90;;;;;;5138870;27;20229;-64
2021/06/19 09:29:03;;;;;;;3.77;3.40;;;18.90;99.90;;;;;;5143502;28;20185;-63
2021/06/19 09:31:38;;;;;;;3.60;3.47;;;18.90;99.90;;;;;;5142157;27;20170;-64
2021/06/19 09:34:09;;;;;;;4.13;3.73;;;18.90;99.90;;;;;;5145796;27;20197;-64
2021/06/19 09:36:50;;;;;;;4.27;3.93;;;18.90;99.90;;;;;;5145246;27;20308;-64
2021/06/19 09:39:21;;;;;;;4.23;3.90;;;19.00;99.90;;;;;;5139617;27;20319;-64
2021/06/19 09:41:52;;;;;;;4.83;4.53;;;19.00;99.90;;;;;;5143462;27;20170;-64
2021/06/19 09:44:38;;;;;;;4.23;4.03;;;18.90;99.90;;;;;;5147753;27;20177;-64
2021/06/19 09:47:07;;;;;;;4.90;4.57;;;18.80;99.90;;;;;;5154573;27;20193;-64
2021/06/19 09:49:39;;;;;;;5.87;4.33;;;18.80;99.90;;;;;;5144535;28;20306;-64
2021/06/19 09:52:10;;;;;;;4.60;4.30;;;18.80;99.90;;;;;;5137438;27;20178;-64
2021/06/19 09:54:43;;;;;;;4.87;4.47;;;18.90;99.90;;;;;;5144949;27;20226;-64
2021/06/19 09:57:16;;;;;;;4.20;4.00;;;18.80;99.90;;;;;;5145299;27;20444;-65
2021/06/19 09:59:45;;;;;;;4.47;4.17;;;18.70;99.90;;;;;;5158827;27;20173;-64
2021/06/19 10:02:19;;;;;;;4.93;4.53;;;18.80;99.90;;;;;;5136401;27;20375;-64
2021/06/19 10:04:51;;;;;;;5.20;4.70;;;18.90;99.90;;;;;;5141392;27;20394;-64
2021/06/19 10:07:21;;;;;;;4.53;4.23;;;19.00;99.90;;;;;;5149276;27;20381;-64
2021/06/19 10:09:50;;;;;;;4.70;4.40;;;19.10;99.90;;;;;;5142087;27;20213;-64
2021/06/19 10:12:20;;;;;;;5.10;4.67;;;19.10;99.90;;;;;;5144514;27;20178;-64
2021/06/19 10:14:49;;;;;;;4.80;4.50;;;19.10;99.90;;;;;;5145955;27;20197;-64
2021/06/19 10:17:19;;;;;;;4.30;3.90;;;19.10;99.90;;;;;;5147914;27;20223;-64
2021/06/19 10:19:48;;;;;;;4.13;3.93;;;19.10;99.90;;;;;;5142136;27;20186;-64
2021/06/19 10:22:17;;;;;;;5.27;4.67;;;19.10;99.90;;;;;;5147931;27;20212;-64
2021/06/19 10:24:50;;;;;;;4.80;4.50;;;19.10;99.90;;;;;;5139302;27;20217;-64
2021/06/19 10:27:19;;;;;;;4.67;4.27;;;19.10;99.90;;;;;;5145942;27;20386;-65
2021/06/19 10:29:50;;;;;;;4.87;4.50;;;19.10;99.90;;;;;;5158191;27;20181;-65
2021/06/19 10:32:41;;;;;;;4.07;3.77;;;19.10;99.90;;;;;;5153995;27;20174;-64
2021/06/19 10:35:13;;;;;;;4.90;4.53;;;19.10;99.90;;;;;;5146926;27;20448;-64
2021/06/19 10:37:42;;;;;;;4.60;4.37;;;19.20;99.90;;;;;;5146588;27;20471;-64
2021/06/19 10:40:20;;;;;;;4.73;4.33;;;19.30;99.90;;;;;;5147693;27;20204;-65
2021/06/19 10:42:52;;;;;;;5.17;4.37;;;19.30;99.90;;;;;;5146791;27;20178;-64
2021/06/19 10:45:24;;;;;;;4.50;4.20;;;19.40;99.90;;;;;;5127245;27;20178;-64
2021/06/19 10:48:04;;;;;;;5.03;4.73;;;19.50;99.90;;;;;;5147458;27;20189;-64
2021/06/19 10:50:39;;;;;;;5.40;5.00;;;19.60;99.90;;;;;;5146745;27;20198;-64
2021/06/19 10:53:12;;;;;;;5.07;4.70;;;19.80;99.90;;;;;;5147423;27;20178;-65
2021/06/19 10:55:57;;;;;;;5.23;4.73;;;19.90;99.90;;;;;;5134768;27;20189;-64
2021/06/19 10:58:29;;;;;;;5.40;5.00;;;19.90;99.90;;;;;;5146885;27;20211;-64
2021/06/19 11:00:59;;;;;;;6.37;5.00;;;20.00;99.90;;;;;;5145101;27;20181;-64
2021/06/19 11:03:43;;;;;;;5.30;4.90;;;19.90;99.90;;;;;;5145352;27;20269;-64
2021/06/19 11:06:20;;;;;;;5.70;5.20;;;20.00;99.90;;;;;;5161300;27;20185;-64
2021/06/19 11:09:13;;;;;;;6.00;5.50;;;20.10;99.90;;;;;;5160467;27;20361;-64
2021/06/19 11:11:55;;;;;;;6.73;6.23;;;20.20;99.90;;;;;;5143070;27;20178;-64
2021/06/19 11:14:52;;;;;;;6.63;6.10;;;20.30;99.90;;;;;;5142853;27;20263;-64
2021/06/19 11:17:44;;;;;;;6.77;6.27;;;20.20;99.90;;;;;;5147069;27;20288;-64
2021/06/19 11:20:30;;;;;;;7.20;6.60;;;20.10;99.90;;;;;;5139805;27;20178;-64
2021/06/19 11:23:06;;;;;;;8.10;6.70;;;20.00;99.90;;;;;;5139171;27;20249;-64
2021/06/19 11:25:55;;;;;;;7.63;6.90;;;20.10;99.90;;;;;;5148431;27;20440;-64
2021/06/19 11:28:32;;;;;;;7.30;6.53;;;20.10;99.90;;;;;;5145304;27;20374;-64
2021/06/19 11:31:05;;;;;;;7.20;6.50;;;20.10;99.90;;;;;;5144604;27;20422;-64
2021/06/19 11:33:45;;;;;;;11.53;7.67;;;20.00;99.90;;;;;;5140467;27;20205;-65
2021/06/19 11:36:41;;;;;;;7.17;6.40;;;20.00;99.90;;;;;;5147932;27;20204;-65
2021/06/19 11:39:16;;;;;;;8.33;6.57;;;20.00;99.90;;;;;;5141707;27;20179;-64
2021/06/19 11:41:49;;;;;;;6.87;6.27;;;20.00;99.90;;;;;;5128680;27;20216;-64
2021/06/19 11:44:26;;;;;;;6.87;6.27;;;20.00;99.90;;;;;;5151136;27;20190;-64
2021/06/19 11:46:56;;;;;;;7.20;5.77;;;20.10;99.90;;;;;;5141776;27;20182;-65
2021/06/19 11:49:30;;;;;;;6.87;6.17;;;20.20;99.90;;;;;;5146007;27;20186;-65
2021/06/19 11:51:59;;;;;;;7.20;6.50;;;20.30;99.90;;;;;;5152726;27;20234;-64
2021/06/19 11:54:28;;;;;;;7.17;6.47;;;20.40;99.90;;;;;;5162082;27;20257;-64
2021/06/19 11:56:57;;;;;;;8.63;6.20;;;20.20;99.90;;;;;;5144734;27;20255;-65
2021/06/19 11:59:31;;;;;;;7.20;6.60;;;20.20;99.90;;;;;;5151678;27;20177;-64
2021/06/19 12:01:59;;;;;;;9.73;6.43;;;20.20;99.90;;;;;;5141514;27;20223;-65
2021/06/19 12:04:30;;;;;;;5.97;5.57;;;20.10;99.90;;;;;;5143764;27;20186;-65
2021/06/19 12:07:02;;;;;;;5.90;5.50;;;20.20;99.90;;;;;;5159554;27;20242;-65
2021/06/19 12:09:32;;;;;;;6.73;5.43;;;20.40;99.90;;;;;;5147077;27;20181;-64
2021/06/19 12:12:03;;;;;;;6.00;5.50;;;20.40;99.90;;;;;;5152315;27;20232;-64
2021/06/19 12:14:34;;;;;;;7.00;4.97;;;20.40;99.90;;;;;;5147006;27;20220;-64
2021/06/19 12:17:07;;;;;;;6.50;5.90;;;20.40;99.90;;;;;;5158381;27;20178;-64
2021/06/19 12:19:38;;;;;;;5.50;5.00;;;20.50;99.90;;;;;;5145336;27;20173;-64
2021/06/19 12:22:07;;;;;;;5.63;5.07;;;20.40;99.90;;;;;;5138941;27;20185;-64
2021/06/19 12:24:38;;;;;;;7.00;6.37;;;20.30;99.90;;;;;;5143973;27;20464;-64
2021/06/19 12:27:15;;;;;;;8.37;7.57;;;20.20;99.90;;;;;;5143951;27;20184;-65
2021/06/19 12:29:47;;;;;;;8.30;7.50;;;20.20;99.90;;;;;;5126319;27;20202;-64
2021/06/19 12:32:27;;;;;;;8.90;8.00;;;20.30;99.90;;;;;;5144924;27;20240;-64
2021/06/19 12:34:58;;;;;;;7.90;7.17;;;20.40;99.90;;;;;;5144400;27;20250;-64
2021/06/19 12:37:30;;;;;;;7.57;6.83;;;20.50;99.90;;;;;;5144931;27;20199;-64
2021/06/19 12:40:00;;;;;;;10.03;7.47;;;20.60;99.90;;;;;;5146864;27;20223;-64
2021/06/19 12:42:45;;;;;;;8.20;7.40;;;20.60;99.90;;;;;;5140649;27;20238;-65
2021/06/19 12:45:17;;;;;;;8.27;7.47;;;20.80;99.90;;;;;;5143129;27;20223;-64
2021/06/19 12:47:48;;;;;;;8.07;6.83;;;20.90;99.90;;;;;;5141324;27;20182;-64
2021/06/19 12:50:20;;;;;;;6.90;6.27;;;21.10;99.90;;;;;;5147562;27;20388;-64
2021/06/19 12:53:03;;;;;;;7.10;6.40;;;21.20;99.90;;;;;;5146677;27;20189;-64
2021/06/19 12:55:33;;;;;;;8.53;7.03;;;21.10;99.90;;;;;;5148023;27;20209;-64
2021/06/19 12:58:15;;;;;;;8.13;7.27;;;21.10;99.90;;;;;;5146138;27;20169;-64
2021/06/19 13:00:50;;;;;;;7.10;6.50;;;20.90;99.90;;;;;;5136760;27;20249;-64
2021/06/19 13:03:23;;;;;;;8.43;7.63;;;20.90;99.90;;;;;;5143742;27;20179;-64